createdAt,value
2019-05-21T00:00:31.852Z,17.64
2019-05-21T00:01:12.491Z,17.56
2019-05-21T00:01:53.006Z,17.7
2019-05-21T00:02:33.556Z,17.63
2019-05-21T00:03:14.127Z,17.51
2019-05-21T00:03:54.710Z,17.59
2019-05-21T00:04:35.284Z,17.64
2019-05-21T00:05:15.846Z,17.64
2019-05-21T00:05:56.411Z,17.59
2019-05-21T00:06:36.967Z,17.54
2019-05-21T00:07:17.540Z,17.63
2019-05-21T00:07:58.088Z,17.64
2019-05-21T00:08:38.676Z,17.59
2019-05-21T00:09:19.236Z,17.64
2019-05-21T00:09:59.823Z,17.65
2019-05-21T00:10:40.408Z,17.63
2019-05-21T00:11:21.019Z,17.64
2019-05-21T00:12:01.567Z,17.56
2019-05-21T00:12:42.126Z,17.46
2019-05-21T00:13:22.686Z,17.52
2019-05-21T00:14:03.302Z,17.56
2019-05-21T00:14:43.885Z,17.56
2019-05-21T00:15:24.486Z,17.63
2019-05-21T00:16:05.037Z,17.59
2019-05-21T00:16:45.609Z,17.57
2019-05-21T00:17:26.173Z,17.6
2019-05-21T00:18:06.797Z,17.6
2019-05-21T00:18:47.332Z,17.51
2019-05-21T00:19:27.889Z,17.64
2019-05-21T00:20:08.455Z,17.45
2019-05-21T00:20:49.041Z,17.51
2019-05-21T00:21:29.620Z,17.48
2019-05-21T00:22:10.189Z,17.51
2019-05-21T00:22:50.786Z,17.48
2019-05-21T00:23:31.345Z,17.45
2019-05-21T00:24:11.921Z,17.46
2019-05-21T00:24:52.534Z,17.45
2019-05-21T00:25:33.084Z,17.44
2019-05-21T00:26:13.665Z,17.45
2019-05-21T00:26:54.228Z,17.45
2019-05-21T00:27:34.820Z,17.41
2019-05-21T00:28:15.380Z,17.41
2019-05-21T00:28:55.950Z,17.41
2019-05-21T00:29:36.498Z,17.44
2019-05-21T00:30:17.067Z,17.33
2019-05-21T00:30:57.628Z,17.42
2019-05-21T00:31:38.181Z,17.38
2019-05-21T00:32:18.756Z,17.39
2019-05-21T00:32:59.359Z,17.36
2019-05-21T00:33:39.936Z,17.38
2019-05-21T00:34:20.508Z,17.38
2019-05-21T00:35:01.086Z,17.27
2019-05-21T00:35:41.657Z,17.33
2019-05-21T00:36:22.212Z,17.36
2019-05-21T00:37:02.791Z,17.34
2019-05-21T00:37:43.357Z,17.31
2019-05-21T00:38:23.923Z,17.3
2019-05-21T00:39:04.487Z,17.36
2019-05-21T00:39:45.093Z,17.36
2019-05-21T00:40:25.645Z,17.3
2019-05-21T00:41:06.227Z,17.24
2019-05-21T00:41:46.791Z,17.24
2019-05-21T00:42:27.452Z,17.2
2019-05-21T00:43:08.004Z,17.29
2019-05-21T00:43:48.591Z,17.26
2019-05-21T00:44:29.224Z,17.19
2019-05-21T00:45:09.791Z,17.2
2019-05-21T00:45:50.374Z,17.2
2019-05-21T00:46:30.953Z,17.27
2019-05-21T00:47:11.546Z,17.22
2019-05-21T00:47:52.239Z,17.19
2019-05-21T00:48:32.781Z,17.27
2019-05-21T00:49:13.345Z,17.19
2019-05-21T00:49:53.916Z,17.19
2019-05-21T00:50:34.537Z,17.2
2019-05-21T00:51:15.141Z,17.22
2019-05-21T00:52:06.750Z,17.24
2019-05-21T00:52:36.272Z,17.2
2019-05-21T00:53:16.886Z,17.24
2019-05-21T00:53:57.429Z,17.22
2019-05-21T00:54:38.005Z,17.22
2019-05-21T00:55:18.604Z,17.23
2019-05-21T00:55:59.162Z,17.26
2019-05-21T00:56:39.717Z,17.27
2019-05-21T00:57:20.311Z,17.2
2019-05-21T00:58:00.886Z,17.24
2019-05-21T00:58:41.464Z,17.24
2019-05-21T00:59:22.019Z,17.22
2019-05-21T01:00:02.637Z,17.15
2019-05-21T01:00:43.209Z,17.16
2019-05-21T01:01:23.778Z,17.12
2019-05-21T01:02:04.335Z,17.24
2019-05-21T01:02:44.905Z,17.16
2019-05-21T01:03:25.481Z,17.2
2019-05-21T01:04:06.049Z,17.08
2019-05-21T01:04:59.427Z,17.19
2019-05-21T01:05:27.189Z,17.22
2019-05-21T01:06:07.767Z,17.22
2019-05-21T01:06:48.326Z,17.14
2019-05-21T01:07:28.901Z,17.09
2019-05-21T01:08:09.481Z,17.14
2019-05-21T01:08:50.076Z,17.22
2019-05-21T01:09:30.680Z,17.12
2019-05-21T01:10:11.242Z,17.23
2019-05-21T01:10:51.807Z,17.14
2019-05-21T01:11:32.432Z,17.14
2019-05-21T01:12:12.969Z,17.19
2019-05-21T01:12:53.552Z,17.22
2019-05-21T01:13:34.133Z,17.14
2019-05-21T01:14:14.695Z,17.09
2019-05-21T01:14:55.250Z,17.11
2019-05-21T01:15:35.823Z,17.14
2019-05-21T01:16:16.415Z,17.11
2019-05-21T01:16:56.967Z,17.19
2019-05-21T01:17:37.552Z,17.12
2019-05-21T01:18:18.121Z,17.16
2019-05-21T01:18:58.696Z,17.16
2019-05-21T01:19:39.338Z,17.11
2019-05-21T01:20:19.901Z,17.16
2019-05-21T01:21:00.528Z,17.14
2019-05-21T01:21:41.116Z,17.14
2019-05-21T01:22:21.693Z,17.14
2019-05-21T01:23:02.260Z,17.12
2019-05-21T01:23:42.852Z,17.16
2019-05-21T01:24:23.430Z,17.11
2019-05-21T01:25:03.992Z,17.2
2019-05-21T01:25:44.573Z,17.16
2019-05-21T01:26:25.134Z,17.12
2019-05-21T01:27:05.697Z,17.04
2019-05-21T01:27:46.262Z,17.09
2019-05-21T01:28:26.841Z,16.99
2019-05-21T01:29:07.416Z,17.06
2019-05-21T01:29:47.996Z,17.05
2019-05-21T01:30:28.609Z,17.04
2019-05-21T01:31:09.246Z,17.01
2019-05-21T01:31:49.804Z,17.06
2019-05-21T01:32:30.375Z,17.04
2019-05-21T01:33:10.935Z,17.02
2019-05-21T01:33:51.482Z,16.99
2019-05-21T01:34:32.262Z,17.11
2019-05-21T01:35:16.974Z,16.99
2019-05-21T01:35:53.349Z,17.01
2019-05-21T01:36:33.908Z,17.05
2019-05-21T01:37:14.501Z,17.04
2019-05-21T01:37:55.027Z,17.04
2019-05-21T01:38:35.615Z,17.01
2019-05-21T01:39:16.255Z,17.02
2019-05-21T01:39:56.830Z,17.05
2019-05-21T01:40:37.387Z,17.02
2019-05-21T01:41:17.952Z,16.97
2019-05-21T01:41:58.533Z,17.01
2019-05-21T01:42:39.095Z,16.96
2019-05-21T01:43:19.656Z,16.97
2019-05-21T01:44:00.287Z,16.96
2019-05-21T01:44:40.874Z,16.96
2019-05-21T01:45:21.460Z,16.93
2019-05-21T01:46:02.016Z,16.94
2019-05-21T01:46:42.721Z,16.91
2019-05-21T01:47:23.281Z,16.93
2019-05-21T01:48:03.845Z,16.94
2019-05-21T01:48:44.411Z,16.99
2019-05-21T01:49:24.996Z,16.93
2019-05-21T01:50:05.553Z,16.9
2019-05-21T01:50:46.132Z,16.9
2019-05-21T01:51:26.723Z,16.91
2019-05-21T01:52:07.291Z,16.94
2019-05-21T01:52:48.018Z,16.94
2019-05-21T01:53:28.576Z,16.94
2019-05-21T01:54:09.159Z,16.83
2019-05-21T01:54:49.723Z,16.94
2019-05-21T01:55:30.484Z,16.87
2019-05-21T01:56:11.076Z,16.86
2019-05-21T01:56:51.648Z,16.84
2019-05-21T01:57:32.215Z,16.81
2019-05-21T01:58:12.766Z,16.86
2019-05-21T01:58:53.337Z,16.79
2019-05-21T01:59:34.057Z,16.79
2019-05-21T02:00:14.549Z,16.86
2019-05-21T02:00:55.157Z,16.83
2019-05-21T02:01:35.816Z,16.9
2019-05-21T02:02:16.404Z,16.81
2019-05-21T02:02:56.955Z,16.81
2019-05-21T02:03:37.513Z,16.87
2019-05-21T02:04:18.082Z,16.79
2019-05-21T02:04:58.648Z,16.81
2019-05-21T02:05:39.213Z,16.81
2019-05-21T02:06:19.784Z,16.79
2019-05-21T02:07:00.444Z,16.81
2019-05-21T02:07:41.023Z,16.83
2019-05-21T02:08:21.609Z,16.78
2019-05-21T02:09:02.218Z,16.75
2019-05-21T02:09:42.779Z,16.71
2019-05-21T02:10:23.346Z,16.79
2019-05-21T02:11:03.951Z,16.74
2019-05-21T02:11:44.509Z,16.69
2019-05-21T02:12:25.094Z,16.75
2019-05-21T02:13:05.663Z,16.69
2019-05-21T02:13:46.218Z,16.76
2019-05-21T02:14:26.778Z,16.72
2019-05-21T02:15:07.362Z,16.72
2019-05-21T02:15:48.167Z,16.65
2019-05-21T02:16:28.753Z,16.68
2019-05-21T02:17:09.310Z,16.78
2019-05-21T02:17:49.898Z,16.65
2019-05-21T02:18:30.484Z,16.78
2019-05-21T02:19:14.037Z,16.69
2019-05-21T02:19:54.603Z,16.72
2019-05-21T02:20:35.167Z,16.66
2019-05-21T02:21:15.734Z,16.66
2019-05-21T02:21:56.323Z,16.72
2019-05-21T02:22:36.896Z,16.66
2019-05-21T02:23:17.470Z,16.66
2019-05-21T02:23:58.028Z,16.68
2019-05-21T02:24:38.799Z,16.74
2019-05-21T02:25:19.375Z,16.74
2019-05-21T02:25:59.937Z,16.78
2019-05-21T02:26:40.502Z,16.68
2019-05-21T02:27:21.134Z,16.65
2019-05-21T02:28:01.721Z,16.72
2019-05-21T02:28:42.279Z,16.69
2019-05-21T02:29:22.871Z,16.71
2019-05-21T02:30:04.029Z,16.76
2019-05-21T02:30:44.044Z,16.66
2019-05-21T02:31:24.650Z,16.64
2019-05-21T02:32:05.181Z,16.69
2019-05-21T02:32:45.785Z,16.69
2019-05-21T02:33:26.347Z,16.57
2019-05-21T02:34:06.924Z,16.61
2019-05-21T02:34:47.478Z,16.66
2019-05-21T02:35:28.196Z,16.57
2019-05-21T02:36:08.755Z,16.65
2019-05-21T02:36:49.322Z,16.66
2019-05-21T02:37:29.889Z,16.61
2019-05-21T02:38:10.469Z,16.66
2019-05-21T02:38:51.048Z,16.6
2019-05-21T02:39:31.768Z,16.58
2019-05-21T02:40:12.326Z,16.58
2019-05-21T02:40:52.905Z,16.58
2019-05-21T02:41:33.461Z,16.6
2019-05-21T02:42:14.012Z,16.64
2019-05-21T02:42:54.590Z,16.61
2019-05-21T02:43:35.163Z,16.61
2019-05-21T02:44:15.746Z,16.61
2019-05-21T02:44:56.319Z,16.64
2019-05-21T02:45:36.903Z,16.61
2019-05-21T02:46:17.468Z,16.6
2019-05-21T02:46:58.042Z,16.61
2019-05-21T02:47:38.616Z,16.54
2019-05-21T02:48:19.182Z,16.61
2019-05-21T02:48:59.738Z,16.57
2019-05-21T02:49:40.482Z,16.54
2019-05-21T02:50:20.929Z,16.58
2019-05-21T02:51:01.506Z,16.61
2019-05-21T02:51:42.092Z,16.56
2019-05-21T02:52:22.674Z,16.66
2019-05-21T02:53:03.260Z,16.54
2019-05-21T02:53:43.812Z,16.54
2019-05-21T02:54:39.102Z,16.57
2019-05-21T02:55:04.938Z,16.56
2019-05-21T02:55:45.537Z,16.61
2019-05-21T02:56:26.081Z,16.69
2019-05-21T02:57:06.660Z,16.69
2019-05-21T02:57:47.237Z,16.61
2019-05-21T02:58:27.804Z,16.65
2019-05-21T02:59:08.565Z,16.58
2019-05-21T03:01:47.031Z,16.65
2019-05-21T03:02:27.609Z,16.61
2019-05-21T03:03:08.158Z,16.61
2019-05-21T03:03:48.810Z,16.64
2019-05-21T03:04:29.296Z,16.65
2019-05-21T03:05:09.908Z,16.58
2019-05-21T03:05:50.427Z,16.6
2019-05-21T03:06:31.023Z,16.57
2019-05-21T03:07:11.556Z,16.61
2019-05-21T03:07:52.114Z,16.6
2019-05-21T03:08:32.680Z,16.61
2019-05-21T03:09:13.240Z,16.6
2019-05-21T03:09:53.801Z,16.61
2019-05-21T03:10:34.353Z,16.58
2019-05-21T03:11:14.994Z,16.64
2019-05-21T03:11:55.550Z,16.6
2019-05-21T03:12:36.099Z,16.68
2019-05-21T03:13:16.654Z,16.68
2019-05-21T03:13:57.234Z,16.6
2019-05-21T03:14:37.792Z,16.71
2019-05-21T03:15:18.354Z,16.61
2019-05-21T03:15:59.031Z,16.61
2019-05-21T03:16:39.577Z,16.69
2019-05-21T03:17:20.150Z,16.58
2019-05-21T03:18:00.730Z,16.64
2019-05-21T03:18:41.299Z,16.56
2019-05-21T03:19:21.857Z,16.65
2019-05-21T03:20:02.416Z,16.54
2019-05-21T03:20:42.987Z,16.6
2019-05-21T03:21:23.554Z,16.58
2019-05-21T03:22:04.318Z,16.57
2019-05-21T03:22:44.947Z,16.57
2019-05-21T03:23:25.544Z,16.6
2019-05-21T03:24:06.383Z,16.56
2019-05-21T03:24:46.982Z,16.53
2019-05-21T03:25:27.529Z,16.53
2019-05-21T03:26:08.205Z,16.53
2019-05-21T03:26:48.830Z,16.58
2019-05-21T03:27:29.382Z,16.54
2019-05-21T03:28:09.987Z,16.54
2019-05-21T03:28:50.544Z,16.56
2019-05-21T03:29:31.167Z,16.61
2019-05-21T03:30:11.780Z,16.54
2019-05-21T03:30:52.345Z,16.56
2019-05-21T03:31:32.920Z,16.53
2019-05-21T03:32:13.474Z,16.47
2019-05-21T03:32:54.043Z,16.49
2019-05-21T03:33:34.622Z,16.47
2019-05-21T03:34:15.222Z,16.5
2019-05-21T03:34:55.886Z,16.41
2019-05-21T03:35:36.476Z,16.5
2019-05-21T03:36:31.480Z,16.43
2019-05-21T03:36:57.655Z,16.47
2019-05-21T03:37:38.306Z,16.5
2019-05-21T03:40:52.704Z,16.5
2019-05-21T03:41:33.310Z,16.5
2019-05-21T03:42:13.895Z,16.47
2019-05-21T03:42:54.490Z,16.56
2019-05-21T03:43:35.051Z,16.53
2019-05-21T03:44:15.630Z,16.58
2019-05-21T03:45:00.085Z,16.53
2019-05-21T03:45:36.762Z,16.56
2019-05-21T03:46:17.371Z,16.56
2019-05-21T03:47:05.741Z,16.56
2019-05-21T03:47:46.303Z,16.57
2019-05-21T03:48:26.889Z,16.53
2019-05-21T03:49:07.460Z,16.51
2019-05-21T03:49:48.073Z,16.56
2019-05-21T03:50:28.637Z,16.53
2019-05-21T03:51:09.176Z,16.6
2019-05-21T03:51:49.725Z,16.49
2019-05-21T03:52:30.302Z,16.57
2019-05-21T03:53:10.879Z,16.5
2019-05-21T03:53:51.465Z,16.56
2019-05-21T03:54:32.000Z,16.54
2019-05-21T03:55:12.572Z,16.54
2019-05-21T03:55:53.254Z,16.56
2019-05-21T03:56:33.851Z,16.43
2019-05-21T03:57:14.391Z,16.5
2019-05-21T03:57:54.944Z,16.5
2019-05-21T03:58:35.529Z,16.46
2019-05-21T03:59:16.104Z,16.47
2019-05-21T03:59:56.677Z,16.51
2019-05-21T04:00:37.259Z,16.46
2019-05-21T04:01:17.810Z,16.5
2019-05-21T04:01:58.420Z,16.51
2019-05-21T04:02:38.985Z,16.49
2019-05-21T04:03:19.615Z,16.47
2019-05-21T04:04:00.164Z,16.51
2019-05-21T04:04:40.722Z,16.46
2019-05-21T04:05:21.296Z,16.5
2019-05-21T04:06:01.885Z,16.43
2019-05-21T04:06:51.605Z,16.49
2019-05-21T04:07:23.021Z,16.41
2019-05-21T04:08:03.597Z,16.42
2019-05-21T04:08:44.148Z,16.41
2019-05-21T04:09:24.719Z,16.38
2019-05-21T04:10:05.280Z,16.46
2019-05-21T04:10:45.845Z,16.41
2019-05-21T04:11:26.400Z,16.42
2019-05-21T04:12:06.963Z,16.41
2019-05-21T04:12:47.586Z,16.5
2019-05-21T04:13:28.342Z,16.56
2019-05-21T04:14:08.904Z,16.56
2019-05-21T04:14:49.490Z,16.64
2019-05-21T04:15:30.104Z,16.74
2019-05-21T04:16:10.674Z,16.61
2019-05-21T04:16:51.243Z,16.69
2019-05-21T04:17:34.507Z,16.81
2019-05-21T04:18:12.368Z,16.83
2019-05-21T04:18:52.956Z,16.96
2019-05-21T04:19:33.546Z,17.01
2019-05-21T04:20:14.153Z,17.02
2019-05-21T04:20:54.705Z,17.12
2019-05-21T04:21:35.264Z,17.09
2019-05-21T04:22:15.814Z,17.23
2019-05-21T04:22:56.392Z,17.24
2019-05-21T04:23:36.978Z,17.24
2019-05-21T04:24:18.021Z,17.19
2019-05-21T04:24:58.573Z,17.31
2019-05-21T04:25:39.194Z,17.29
2019-05-21T04:26:19.740Z,17.34
2019-05-21T04:27:00.314Z,17.29
2019-05-21T04:27:40.929Z,17.39
2019-05-21T04:28:21.518Z,17.34
2019-05-21T04:29:02.077Z,17.44
2019-05-21T04:29:42.658Z,17.45
2019-05-21T04:30:23.198Z,17.41
2019-05-21T04:31:03.805Z,17.44
2019-05-21T04:31:44.390Z,17.46
2019-05-21T04:32:24.980Z,17.54
2019-05-21T04:33:05.541Z,17.63
2019-05-21T04:33:46.151Z,17.68
2019-05-21T04:34:26.774Z,17.64
2019-05-21T04:35:07.346Z,17.76
2019-05-21T04:35:47.924Z,17.72
2019-05-21T04:36:28.506Z,17.8
2019-05-21T04:37:11.153Z,17.83
2019-05-21T04:37:49.633Z,17.8
2019-05-21T04:38:30.220Z,17.8
2019-05-21T04:39:10.774Z,17.87
2019-05-21T04:39:51.369Z,17.87
2019-05-21T04:40:31.904Z,17.95
2019-05-21T04:41:12.475Z,17.97
2019-05-21T04:41:53.060Z,17.95
2019-05-21T04:42:33.631Z,17.94
2019-05-21T04:43:14.205Z,17.9
2019-05-21T04:43:54.759Z,18
2019-05-21T04:44:35.333Z,17.92
2019-05-21T04:45:15.923Z,17.98
2019-05-21T04:45:56.522Z,17.95
2019-05-21T04:46:37.078Z,17.92
2019-05-21T04:47:17.663Z,17.98
2019-05-21T04:47:58.250Z,18.03
2019-05-21T04:48:38.815Z,18.07
2019-05-21T04:49:19.387Z,18.04
2019-05-21T04:49:59.976Z,18.1
2019-05-21T04:50:40.598Z,18.18
2019-05-21T04:51:21.158Z,18.2
2019-05-21T04:52:02.294Z,18.13
2019-05-21T04:52:42.885Z,18.19
2019-05-21T04:53:23.438Z,18.15
2019-05-21T04:54:04.021Z,18.23
2019-05-21T04:54:44.613Z,18.19
2019-05-21T04:55:25.189Z,18.13
2019-05-21T04:56:05.767Z,18.22
2019-05-21T04:56:46.344Z,18.26
2019-05-21T04:57:26.904Z,18.33
2019-05-21T04:58:07.461Z,18.23
2019-05-21T04:58:48.078Z,18.26
2019-05-21T04:59:28.724Z,18.26
2019-05-21T05:00:09.286Z,18.28
2019-05-21T05:00:49.869Z,18.31
2019-05-21T05:01:30.484Z,18.33
2019-05-21T05:02:11.063Z,18.15
2019-05-21T05:02:51.625Z,18.16
2019-05-21T05:03:32.207Z,18.26
2019-05-21T05:04:12.782Z,18.2
2019-05-21T05:04:53.351Z,18.31
2019-05-21T05:05:33.921Z,18.25
2019-05-21T05:06:14.522Z,18.26
2019-05-21T05:06:55.082Z,18.2
2019-05-21T05:07:35.647Z,18.22
2019-05-21T05:08:16.212Z,18.19
2019-05-21T05:08:56.837Z,18.31
2019-05-21T05:09:37.406Z,18.33
2019-05-21T05:10:17.963Z,18.23
2019-05-21T05:10:58.534Z,18.28
2019-05-21T05:11:39.141Z,18.26
2019-05-21T05:12:19.724Z,18.25
2019-05-21T05:13:00.278Z,18.29
2019-05-21T05:13:40.870Z,18.29
2019-05-21T05:14:21.495Z,18.35
2019-05-21T05:15:02.104Z,18.34
2019-05-21T05:15:42.673Z,18.43
2019-05-21T05:16:23.434Z,18.43
2019-05-21T05:17:03.952Z,18.4
2019-05-21T05:17:44.479Z,18.41
2019-05-21T05:18:25.131Z,18.44
2019-05-21T05:19:05.707Z,18.45
2019-05-21T05:19:46.306Z,18.35
2019-05-21T05:20:26.901Z,18.37
2019-05-21T05:21:07.484Z,18.37
2019-05-21T05:21:48.202Z,18.44
2019-05-21T05:22:28.914Z,18.41
2019-05-21T05:23:09.556Z,18.41
2019-05-21T05:23:50.249Z,18.34
2019-05-21T05:24:30.803Z,18.44
2019-05-21T05:25:11.356Z,18.38
2019-05-21T05:25:51.954Z,18.43
2019-05-21T05:26:32.513Z,18.43
2019-05-21T05:27:14.673Z,18.44
2019-05-21T05:27:55.237Z,18.53
2019-05-21T05:28:35.851Z,18.62
2019-05-21T05:29:16.395Z,18.65
2019-05-21T05:29:57.007Z,18.7
2019-05-21T05:30:37.602Z,18.77
2019-05-21T05:31:18.250Z,18.84
2019-05-21T05:31:58.803Z,18.88
2019-05-21T05:32:39.379Z,19.02
2019-05-21T05:33:20.025Z,19.04
2019-05-21T05:34:00.589Z,19.18
2019-05-21T05:34:41.178Z,19.36
2019-05-21T05:35:21.783Z,19.34
2019-05-21T05:36:02.342Z,19.48
2019-05-21T05:36:42.981Z,19.63
2019-05-21T05:37:23.564Z,19.69
2019-05-21T05:38:04.305Z,19.71
2019-05-21T05:38:44.934Z,19.85
2019-05-21T05:39:25.621Z,19.91
2019-05-21T05:40:06.202Z,19.89
2019-05-21T05:40:46.947Z,19.94
2019-05-21T05:41:27.400Z,20.07
2019-05-21T05:42:07.954Z,20.14
2019-05-21T05:42:48.534Z,20.19
2019-05-21T05:43:29.120Z,20.26
2019-05-21T05:44:09.727Z,20.29
2019-05-21T05:44:50.303Z,20.47
2019-05-21T05:45:30.890Z,20.5
2019-05-21T05:46:11.458Z,20.59
2019-05-21T05:46:52.029Z,20.58
2019-05-21T05:47:32.599Z,20.66
2019-05-21T05:48:13.239Z,20.78
2019-05-21T05:48:53.816Z,20.84
2019-05-21T05:49:34.388Z,20.93
2019-05-21T05:50:15.026Z,21.07
2019-05-21T05:50:55.611Z,21.12
2019-05-21T05:51:36.185Z,21.22
2019-05-21T05:52:16.744Z,21.14
2019-05-21T05:52:57.327Z,21.17
2019-05-21T05:53:37.951Z,21.25
2019-05-21T05:54:18.545Z,21.3
2019-05-21T05:54:59.206Z,21.4
2019-05-21T05:55:39.732Z,21.45
2019-05-21T05:56:20.309Z,21.36
2019-05-21T05:57:00.929Z,21.57
2019-05-21T05:57:41.486Z,21.62
2019-05-21T05:58:22.093Z,21.61
2019-05-21T05:59:02.627Z,21.61
2019-05-21T05:59:43.202Z,21.8
2019-05-21T06:00:23.827Z,21.85
2019-05-21T06:01:04.406Z,21.79
2019-05-21T06:01:44.955Z,21.85
2019-05-21T06:02:25.527Z,21.85
2019-05-21T06:03:06.096Z,21.76
2019-05-21T06:03:46.695Z,21.79
2019-05-21T06:04:30.305Z,21.79
2019-05-21T06:05:07.898Z,21.85
2019-05-21T06:05:48.499Z,21.79
2019-05-21T06:06:29.075Z,21.92
2019-05-21T06:07:09.645Z,21.93
2019-05-21T06:07:59.074Z,22.02
2019-05-21T06:08:30.842Z,21.98
2019-05-21T06:09:11.452Z,22.06
2019-05-21T06:09:52.101Z,22.04
2019-05-21T06:10:32.654Z,22.15
2019-05-21T06:11:13.240Z,22.14
2019-05-21T06:11:53.791Z,22.3
2019-05-21T06:12:34.371Z,22.28
2019-05-21T06:13:14.936Z,22.38
2019-05-21T06:13:55.529Z,22.43
2019-05-21T06:14:36.100Z,22.51
2019-05-21T06:15:16.679Z,22.55
2019-05-21T06:15:57.246Z,22.54
2019-05-21T06:16:37.844Z,22.57
2019-05-21T06:17:18.420Z,22.69
2019-05-21T06:17:58.996Z,22.6
2019-05-21T06:18:39.574Z,22.76
2019-05-21T06:19:20.172Z,22.73
2019-05-21T06:20:00.753Z,22.78
2019-05-21T06:20:41.371Z,22.78
2019-05-21T06:21:21.913Z,22.87
2019-05-21T06:22:02.515Z,22.8
2019-05-21T06:22:43.082Z,22.88
2019-05-21T06:23:23.640Z,22.85
2019-05-21T06:24:04.216Z,22.87
2019-05-21T06:24:44.782Z,22.87
2019-05-21T06:25:25.355Z,22.91
2019-05-21T06:26:05.968Z,22.94
2019-05-21T06:26:46.485Z,22.94
2019-05-21T06:27:27.067Z,22.94
2019-05-21T06:28:07.725Z,22.98
2019-05-21T06:28:48.295Z,23
2019-05-21T06:29:28.887Z,23.02
2019-05-21T06:30:09.533Z,22.91
2019-05-21T06:30:50.122Z,22.87
2019-05-21T06:31:30.690Z,22.91
2019-05-21T06:32:11.272Z,22.88
2019-05-21T06:32:51.857Z,22.88
2019-05-21T06:33:32.441Z,22.9
2019-05-21T06:34:13.023Z,22.81
2019-05-21T06:34:53.696Z,22.85
2019-05-21T06:35:34.229Z,22.88
2019-05-21T06:36:14.834Z,22.94
2019-05-21T06:36:55.423Z,22.96
2019-05-21T06:37:35.999Z,23.08
2019-05-21T06:38:18.260Z,23.08
2019-05-21T06:38:57.163Z,23.13
2019-05-21T06:39:37.823Z,23.1
2019-05-21T06:40:18.395Z,23.21
2019-05-21T06:40:58.961Z,23.2
2019-05-21T06:41:39.574Z,23.23
2019-05-21T06:42:20.303Z,23.37
2019-05-21T06:43:00.889Z,23.25
2019-05-21T06:43:41.463Z,23.39
2019-05-21T06:44:22.042Z,23.39
2019-05-21T06:45:02.868Z,23.34
2019-05-21T06:45:43.218Z,23.46
2019-05-21T06:46:23.832Z,23.41
2019-05-21T06:47:04.399Z,23.48
2019-05-21T06:47:44.995Z,23.34
2019-05-21T06:48:25.567Z,23.34
2019-05-21T06:49:06.244Z,23.41
2019-05-21T06:49:46.732Z,23.41
2019-05-21T06:50:27.308Z,23.36
2019-05-21T06:51:07.924Z,23.48
2019-05-21T06:51:48.497Z,23.54
2019-05-21T06:52:29.083Z,23.54
2019-05-21T06:53:09.712Z,23.54
2019-05-21T06:53:50.376Z,23.61
2019-05-21T06:54:30.965Z,23.55
2019-05-21T06:55:11.541Z,23.55
2019-05-21T06:55:52.118Z,23.62
2019-05-21T06:56:32.769Z,23.56
2019-05-21T06:57:13.342Z,23.61
2019-05-21T06:57:53.947Z,23.59
2019-05-21T06:58:34.524Z,23.59
2019-05-21T06:59:15.106Z,23.62
2019-05-21T06:59:55.696Z,23.62
2019-05-21T07:00:36.294Z,23.69
2019-05-21T07:01:16.855Z,23.71
2019-05-21T07:01:57.598Z,23.8
2019-05-21T07:02:38.168Z,23.76
2019-05-21T07:03:18.786Z,23.71
2019-05-21T07:03:59.375Z,23.61
2019-05-21T07:04:39.953Z,23.66
2019-05-21T07:05:20.536Z,23.62
2019-05-21T07:06:01.158Z,23.61
2019-05-21T07:06:44.557Z,23.62
2019-05-21T07:07:22.302Z,23.62
2019-05-21T07:08:02.882Z,23.54
2019-05-21T07:08:43.458Z,23.58
2019-05-21T07:09:24.036Z,23.61
2019-05-21T07:10:04.656Z,23.68
2019-05-21T07:10:45.280Z,23.8
2019-05-21T07:11:25.839Z,23.8
2019-05-21T07:14:39.861Z,23.95
2019-05-21T07:15:20.456Z,23.92
2019-05-21T07:16:01.024Z,23.98
2019-05-21T07:16:41.632Z,23.99
2019-05-21T07:17:22.197Z,23.95
2019-05-21T07:18:02.772Z,24.08
2019-05-21T07:18:43.341Z,24.08
2019-05-21T07:19:23.917Z,24.14
2019-05-21T07:20:04.591Z,24.08
2019-05-21T07:20:45.170Z,24.14
2019-05-21T07:21:25.778Z,24.03
2019-05-21T07:22:12.450Z,24.16
2019-05-21T07:22:47.019Z,24.11
2019-05-21T07:23:27.526Z,24.16
2019-05-21T07:24:08.111Z,24.2
2019-05-21T07:24:48.732Z,24.2
2019-05-21T07:25:29.314Z,24.14
2019-05-21T07:26:09.880Z,24.21
2019-05-21T07:26:50.472Z,24.21
2019-05-21T07:27:31.146Z,24.26
2019-05-21T07:28:11.655Z,24.21
2019-05-21T07:28:53.325Z,24.2
2019-05-21T07:29:32.891Z,24.26
2019-05-21T07:30:13.437Z,24.28
2019-05-21T07:30:54.023Z,24.36
2019-05-21T07:31:34.674Z,24.42
2019-05-21T07:32:15.289Z,24.28
2019-05-21T07:32:55.880Z,24.35
2019-05-21T07:33:36.451Z,24.39
2019-05-21T07:34:17.030Z,24.47
2019-05-21T07:34:57.680Z,24.45
2019-05-21T07:35:38.315Z,24.5
2019-05-21T07:36:19.022Z,24.47
2019-05-21T07:36:59.611Z,24.5
2019-05-21T07:37:40.198Z,24.58
2019-05-21T07:38:20.804Z,24.51
2019-05-21T07:39:01.433Z,24.58
2019-05-21T07:39:42.002Z,24.66
2019-05-21T07:40:22.610Z,24.57
2019-05-21T07:41:03.190Z,24.63
2019-05-21T07:41:43.766Z,24.61
2019-05-21T07:42:24.334Z,24.65
2019-05-21T07:43:04.918Z,24.68
2019-05-21T07:43:45.551Z,24.5
2019-05-21T07:44:26.088Z,24.51
2019-05-21T07:45:06.662Z,24.4
2019-05-21T07:45:47.256Z,24.35
2019-05-21T07:46:27.938Z,24.29
2019-05-21T07:47:08.532Z,24.24
2019-05-21T07:47:49.207Z,24.26
2019-05-21T07:48:29.759Z,24.21
2019-05-21T07:49:10.527Z,24.23
2019-05-21T07:49:51.139Z,24.3
2019-05-21T07:50:31.726Z,24.26
2019-05-21T07:51:12.304Z,24.3
2019-05-21T07:51:52.910Z,24.33
2019-05-21T07:52:33.524Z,24.32
2019-05-21T07:53:14.089Z,24.4
2019-05-21T07:53:54.687Z,24.47
2019-05-21T07:54:35.284Z,24.39
2019-05-21T07:55:15.880Z,24.45
2019-05-21T07:55:56.472Z,24.42
2019-05-21T07:56:37.086Z,24.51
2019-05-21T07:59:36.359Z,24.5
2019-05-21T08:00:16.984Z,24.55
2019-05-21T08:01:00.913Z,24.57
2019-05-21T08:01:38.119Z,24.51
2019-05-21T08:02:18.747Z,24.58
2019-05-21T08:02:59.334Z,24.6
2019-05-21T08:05:12.186Z,24.61
2019-05-21T08:05:52.826Z,24.7
2019-05-21T08:06:33.381Z,24.78
2019-05-21T08:07:13.952Z,24.74
2019-05-21T08:07:54.534Z,24.76
2019-05-21T08:08:35.168Z,24.66
2019-05-21T08:09:15.743Z,24.61
2019-05-21T08:09:56.337Z,24.65
2019-05-21T08:10:36.921Z,24.69
2019-05-21T08:11:17.503Z,24.57
2019-05-21T08:11:58.108Z,24.73
2019-05-21T08:12:39.772Z,24.77
2019-05-21T08:13:19.253Z,24.73
2019-05-21T08:13:59.819Z,24.76
2019-05-21T08:14:40.393Z,24.81
2019-05-21T08:15:20.977Z,24.8
2019-05-21T08:16:01.558Z,24.84
2019-05-21T08:16:42.238Z,24.85
2019-05-21T08:17:22.774Z,24.84
2019-05-21T08:18:03.314Z,24.89
2019-05-21T08:18:43.877Z,24.92
2019-05-21T08:19:24.447Z,24.89
2019-05-21T08:20:09.697Z,24.88
2019-05-21T08:20:45.626Z,24.86
2019-05-21T08:21:26.202Z,24.92
2019-05-21T08:22:06.772Z,24.92
2019-05-21T08:22:47.366Z,24.88
2019-05-21T08:23:27.926Z,24.89
2019-05-21T08:24:08.573Z,24.78
2019-05-21T08:24:49.129Z,24.85
2019-05-21T08:25:29.702Z,24.84
2019-05-21T08:26:10.259Z,24.85
2019-05-21T08:26:50.878Z,24.93
2019-05-21T08:27:31.473Z,24.89
2019-05-21T08:28:12.069Z,24.8
2019-05-21T08:28:52.609Z,24.81
2019-05-21T08:29:33.179Z,24.89
2019-05-21T08:30:13.748Z,24.86
2019-05-21T08:30:54.332Z,24.81
2019-05-21T08:31:34.921Z,24.84
2019-05-21T08:32:15.486Z,24.85
2019-05-21T08:32:56.084Z,24.74
2019-05-21T08:33:36.665Z,24.7
2019-05-21T08:34:17.233Z,24.74
2019-05-21T08:34:57.868Z,24.68
2019-05-21T08:35:38.374Z,24.76
2019-05-21T08:36:19.014Z,24.74
2019-05-21T08:36:59.542Z,24.77
2019-05-21T08:37:40.139Z,24.73
2019-05-21T08:38:20.714Z,24.74
2019-05-21T08:39:01.294Z,24.77
2019-05-21T08:39:41.849Z,24.74
2019-05-21T08:40:22.445Z,24.78
2019-05-21T08:41:03.026Z,24.92
2019-05-21T08:41:43.613Z,24.8
2019-05-21T08:42:24.195Z,24.78
2019-05-21T08:43:04.791Z,24.89
2019-05-21T08:43:45.368Z,24.78
2019-05-21T08:44:25.961Z,24.78
2019-05-21T08:45:06.647Z,24.85
2019-05-21T08:45:47.126Z,24.81
2019-05-21T08:46:27.682Z,24.76
2019-05-21T08:47:08.265Z,24.76
2019-05-21T08:47:48.827Z,24.7
2019-05-21T08:48:29.420Z,24.69
2019-05-21T08:49:09.989Z,24.76
2019-05-21T08:49:50.548Z,24.7
2019-05-21T08:50:31.108Z,24.58
2019-05-21T08:51:11.700Z,24.65
2019-05-21T08:51:52.279Z,24.61
2019-05-21T08:52:32.845Z,24.58
2019-05-21T08:53:13.398Z,24.54
2019-05-21T08:53:53.969Z,24.45
2019-05-21T08:54:34.541Z,24.43
2019-05-21T08:58:05.420Z,24.43
2019-05-21T08:58:29.066Z,24.5